Time;durP1;ratioP1;P1;durP2;ratioP2;P2;SDS_P1;SDS_P2;PMS_P1;PMS_P2;Temp;Humidity;BMP_temperature;BMP_pressure;BME280_temperature;BME280_humidity;BME280_pressure;Samples;Min_cycle;Max_cycle;Signal;HPM_P1;HPM_P2
2023/07/31 00:02:13;;;;;;;3.83;2.30;;;;;;;;;;5071999;28;20107;-60
2023/07/31 00:04:38;;;;;;;3.17;2.10;;;;;;;;;;5058006;28;20369;-60
2023/07/31 00:07:04;;;;;;;3.15;2.03;;;;;;;;;;5063041;28;20557;-61
2023/07/31 00:09:29;;;;;;;2.38;2.03;;;;;;;;;;5071876;28;20024;-60
2023/07/31 00:11:54;;;;;;;3.30;2.40;;;;;;;;;;5076737;28;20047;-61
2023/07/31 00:14:20;;;;;;;3.53;1.88;;;;;;;;;;5063238;28;20055;-60
2023/07/31 00:16:45;;;;;;;2.97;2.33;;;;;;;;;;5066423;28;20380;-60
2023/07/31 00:19:10;;;;;;;3.67;2.50;;;;;;;;;;5063659;28;20471;-58
2023/07/31 00:21:36;;;;;;;3.05;2.70;;;;;;;;;;5069875;28;20693;-60
2023/07/31 00:24:01;;;;;;;3.53;2.60;;;;;;;;;;5063118;28;20464;-59
2023/07/31 00:26:26;;;;;;;5.07;2.80;;;;;;;;;;5063942;28;20024;-59
2023/07/31 00:28:51;;;;;;;5.27;3.33;;;;;;;;;;5080869;28;20731;-60
2023/07/31 00:31:16;;;;;;;5.75;3.03;;;;;;;;;;5072568;28;20303;-60
2023/07/31 00:33:42;;;;;;;3.47;3.07;;;;;;;;;;5064077;28;20031;-60
2023/07/31 00:36:07;;;;;;;3.57;2.50;;;;;;;;;;5062980;28;20727;-59
2023/07/31 00:38:32;;;;;;;3.05;2.40;;;;;;;;;;5078577;28;20277;-61
2023/07/31 00:40:57;;;;;;;3.90;2.80;;;;;;;;;;5067472;28;20519;-61
2023/07/31 00:43:23;;;;;;;4.00;3.17;;;;;;;;;;5085287;28;20263;-61
2023/07/31 00:45:48;;;;;;;3.80;3.03;;;;;;;;;;5086825;28;20291;-60
2023/07/31 00:48:13;;;;;;;2.95;2.63;;;;;;;;;;5069704;28;20032;-61
2023/07/31 00:50:39;;;;;;;3.17;2.55;;;;;;;;;;5066826;28;20165;-60
2023/07/31 00:53:04;;;;;;;3.50;2.90;;;;;;;;;;5085216;28;20438;-58
2023/07/31 00:55:30;;;;;;;3.17;2.55;;;;;;;;;;5086833;28;20342;-61
2023/07/31 00:57:55;;;;;;;4.38;3.05;;;;;;;;;;5072970;28;20035;-59
2023/07/31 01:00:21;;;;;;;6.45;3.25;;;;;;;;;;5078098;28;20488;-61
2023/07/31 01:02:46;;;;;;;4.18;3.05;;;;;;;;;;5081790;28;20501;-58
2023/07/31 01:05:12;;;;;;;6.90;3.50;;;;;;;;;;5074214;28;20028;-61
2023/07/31 01:07:59;;;;;;;4.13;3.33;;;;;;;;;;5077178;28;20420;-60
2023/07/31 01:10:26;;;;;;;4.20;3.38;;;;;;;;;;5073159;28;20020;-62
2023/07/31 01:12:53;;;;;;;8.25;3.33;;;;;;;;;;5067353;28;20028;-61
2023/07/31 01:15:18;;;;;;;4.55;3.78;;;;;;;;;;5083274;28;20631;-61
2023/07/31 01:17:44;;;;;;;5.35;3.33;;;;;;;;;;5066459;28;20052;-61
2023/07/31 01:20:15;;;;;;;4.82;3.17;;;;;;;;;;5066500;28;20174;-61
2023/07/31 01:22:53;;;;;;;5.22;3.47;;;;;;;;;;5067186;28;20036;-60
2023/07/31 01:25:24;;;;;;;7.80;4.25;;;;;;;;;;5066158;28;20016;-61
2023/07/31 01:27:58;;;;;;;8.52;4.60;;;;;;;;;;5065793;28;20029;-59
2023/07/31 01:30:25;;;;;;;5.45;3.95;;;;;;;;;;5078067;28;20073;-61
2023/07/31 01:32:52;;;;;;;5.18;4.20;;;;;;;;;;5069776;28;20033;-61
2023/07/31 01:35:17;;;;;;;5.60;3.97;;;;;;;;;;5078369;28;20047;-60
2023/07/31 01:37:42;;;;;;;6.25;4.35;;;;;;;;;;5065667;28;20029;-59
2023/07/31 01:40:08;;;;;;;5.00;4.03;;;;;;;;;;5065950;28;20472;-61
2023/07/31 01:42:33;;;;;;;5.20;4.22;;;;;;;;;;5037095;28;20315;-61
2023/07/31 01:44:58;;;;;;;7.13;4.50;;;;;;;;;;5083032;28;20024;-61
2023/07/31 01:47:24;;;;;;;5.43;3.83;;;;;;;;;;5079294;28;20288;-60
2023/07/31 01:49:49;;;;;;;5.67;4.53;;;;;;;;;;5079821;28;20296;-61
2023/07/31 01:52:14;;;;;;;5.43;3.70;;;;;;;;;;5067017;28;20616;-61
2023/07/31 01:54:39;;;;;;;5.83;4.13;;;;;;;;;;5047762;28;20504;-61
2023/07/31 01:57:05;;;;;;;5.65;4.70;;;;;;;;;;5073171;28;20316;-61
2023/07/31 01:59:30;;;;;;;5.50;4.20;;;;;;;;;;5079769;28;20055;-59
2023/07/31 02:01:55;;;;;;;6.17;4.67;;;;;;;;;;5069502;28;20023;-59
2023/07/31 02:04:21;;;;;;;6.13;4.70;;;;;;;;;;5085955;28;20244;-61
2023/07/31 02:06:46;;;;;;;6.43;4.43;;;;;;;;;;5085528;28;20294;-59
2023/07/31 02:09:11;;;;;;;7.97;5.23;;;;;;;;;;5085497;28;20016;-61
2023/07/31 02:11:36;;;;;;;5.68;4.70;;;;;;;;;;5085050;28;20355;-61
2023/07/31 02:14:02;;;;;;;4.93;4.17;;;;;;;;;;5082962;28;20028;-60
2023/07/31 02:16:27;;;;;;;4.65;4.22;;;;;;;;;;5065394;28;20253;-60
2023/07/31 02:18:52;;;;;;;7.53;5.33;;;;;;;;;;5065297;28;20047;-61
2023/07/31 02:21:17;;;;;;;6.88;4.93;;;;;;;;;;5065292;28;20454;-61
2023/07/31 02:23:43;;;;;;;5.47;4.57;;;;;;;;;;5064664;28;20017;-61
2023/07/31 02:26:08;;;;;;;10.90;5.20;;;;;;;;;;5064869;28;20334;-58
2023/07/31 02:28:33;;;;;;;6.50;4.70;;;;;;;;;;5065181;28;20256;-60
2023/07/31 02:30:58;;;;;;;7.53;4.35;;;;;;;;;;5065892;28;20017;-61
2023/07/31 02:33:24;;;;;;;5.13;4.30;;;;;;;;;;5064847;28;20020;-61
2023/07/31 02:35:49;;;;;;;5.93;4.93;;;;;;;;;;5064863;28;20242;-61
2023/07/31 02:38:14;;;;;;;5.80;4.70;;;;;;;;;;5064843;28;20107;-60
2023/07/31 02:40:43;;;;;;;6.30;4.70;;;;;;;;;;5080540;28;20249;-61
2023/07/31 02:43:08;;;;;;;4.82;4.00;;;;;;;;;;5064526;28;20241;-61
2023/07/31 02:45:34;;;;;;;4.80;4.13;;;;;;;;;;5068814;28;20463;-61
2023/07/31 02:47:59;;;;;;;6.05;4.68;;;;;;;;;;5083989;28;20035;-58
2023/07/31 02:50:24;;;;;;;4.63;3.95;;;;;;;;;;5084871;28;20028;-62
2023/07/31 02:52:49;;;;;;;5.13;4.40;;;;;;;;;;5084624;28;20017;-60
2023/07/31 02:55:15;;;;;;;5.78;4.53;;;;;;;;;;5099961;28;20597;-61
2023/07/31 02:57:40;;;;;;;8.10;4.97;;;;;;;;;;5100005;28;20027;-59
2023/07/31 03:00:06;;;;;;;6.93;5.43;;;;;;;;;;5084054;28;20399;-61
2023/07/31 03:02:31;;;;;;;5.05;4.05;;;;;;;;;;5066454;28;20115;-60
2023/07/31 03:04:57;;;;;;;9.60;5.32;;;;;;;;;;5083561;28;20492;-61
2023/07/31 03:07:22;;;;;;;6.87;4.70;;;;;;;;;;5084946;28;20020;-61
2023/07/31 03:09:47;;;;;;;7.72;5.18;;;;;;;;;;5084588;28;20516;-58
2023/07/31 03:12:13;;;;;;;6.93;5.85;;;;;;;;;;5084120;28;20447;-61
2023/07/31 03:14:38;;;;;;;9.15;5.70;;;;;;;;;;5084222;28;20051;-59
2023/07/31 03:17:03;;;;;;;7.00;5.10;;;;;;;;;;5081492;28;20111;-62
2023/07/31 03:19:30;;;;;;;6.10;4.75;;;;;;;;;;5084346;28;20756;-61
2023/07/31 03:21:55;;;;;;;5.82;4.78;;;;;;;;;;5083070;28;20016;-60
2023/07/31 03:24:21;;;;;;;9.05;5.30;;;;;;;;;;5063395;28;20572;-60
2023/07/31 03:26:46;;;;;;;8.43;5.33;;;;;;;;;;5063678;28;20081;-61
2023/07/31 03:29:11;;;;;;;7.50;5.22;;;;;;;;;;5063621;28;20796;-60
2023/07/31 03:31:36;;;;;;;7.07;5.10;;;;;;;;;;5063656;28;20016;-60
2023/07/31 03:34:02;;;;;;;8.10;5.43;;;;;;;;;;5063470;28;20024;-60
2023/07/31 03:36:27;;;;;;;5.78;4.10;;;;;;;;;;5063798;28;20288;-61
2023/07/31 03:38:52;;;;;;;7.28;4.70;;;;;;;;;;5063922;28;20025;-61
2023/07/31 03:41:17;;;;;;;8.00;5.05;;;;;;;;;;5083633;28;20016;-61
2023/07/31 03:43:43;;;;;;;9.05;4.95;;;;;;;;;;5083726;28;20008;-62
2023/07/31 03:46:08;;;;;;;6.70;4.93;;;;;;;;;;5083334;28;20047;-57
2023/07/31 03:48:33;;;;;;;7.85;4.63;;;;;;;;;;5083512;28;20047;-59
2023/07/31 03:50:58;;;;;;;7.30;4.93;;;;;;;;;;5083572;28;20148;-59
2023/07/31 03:53:24;;;;;;;7.73;5.10;;;;;;;;;;5083934;28;20248;-60
2023/07/31 03:55:49;;;;;;;6.28;4.53;;;;;;;;;;5082805;28;20705;-60
2023/07/31 03:58:14;;;;;;;6.87;4.10;;;;;;;;;;5083467;28;20016;-61
2023/07/31 04:00:40;;;;;;;6.13;4.80;;;;;;;;;;5083681;28;20754;-59
2023/07/31 04:03:05;;;;;;;5.32;4.15;;;;;;;;;;5083428;28;20233;-61
2023/07/31 04:05:31;;;;;;;9.93;4.93;;;;;;;;;;5083620;28;20016;-61
2023/07/31 04:07:57;;;;;;;4.47;4.03;;;;;;;;;;5083803;28;20600;-61
2023/07/31 04:10:22;;;;;;;5.10;4.10;;;;;;;;;;5083442;28;20020;-59
2023/07/31 04:12:48;;;;;;;6.07;4.60;;;;;;;;;;5082625;28;20058;-60
2023/07/31 04:15:13;;;;;;;6.70;3.63;;;;;;;;;;5083368;28;20031;-61
2023/07/31 04:17:38;;;;;;;6.65;4.00;;;;;;;;;;5063895;28;20040;-59
2023/07/31 04:20:04;;;;;;;5.50;3.17;;;;;;;;;;5083338;28;20035;-61
2023/07/31 04:22:29;;;;;;;6.05;3.60;;;;;;;;;;5083672;28;20765;-60
2023/07/31 04:24:54;;;;;;;3.63;3.08;;;;;;;;;;5083414;28;20485;-61
2023/07/31 04:27:19;;;;;;;4.25;2.78;;;;;;;;;;5083561;28;20108;-61
2023/07/31 04:29:46;;;;;;;3.67;2.80;;;;;;;;;;5082848;28;20069;-60
2023/07/31 04:32:12;;;;;;;4.10;3.28;;;;;;;;;;5082864;28;20240;-60
2023/07/31 04:34:37;;;;;;;4.50;3.20;;;;;;;;;;5083426;28;20482;-60
2023/07/31 04:37:02;;;;;;;3.97;2.97;;;;;;;;;;5083483;28;20241;-60
2023/07/31 04:39:28;;;;;;;4.82;2.70;;;;;;;;;;5083520;28;20032;-60
2023/07/31 04:41:53;;;;;;;4.75;3.05;;;;;;;;;;5065974;28;20023;-60
2023/07/31 04:44:18;;;;;;;7.27;2.60;;;;;;;;;;5083754;28;20024;-56
2023/07/31 04:46:43;;;;;;;4.17;2.80;;;;;;;;;;5083481;28;20417;-60
2023/07/31 04:49:09;;;;;;;2.90;2.53;;;;;;;;;;5082848;28;20032;-60
2023/07/31 04:51:34;;;;;;;3.60;2.60;;;;;;;;;;5083404;28;20252;-58
2023/07/31 04:53:59;;;;;;;3.78;2.72;;;;;;;;;;5083284;28;20241;-60
2023/07/31 04:56:24;;;;;;;2.53;2.20;;;;;;;;;;5083367;28;20029;-61
2023/07/31 04:58:50;;;;;;;6.90;3.10;;;;;;;;;;5083009;28;20794;-61
2023/07/31 05:01:15;;;;;;;5.00;2.30;;;;;;;;;;5083145;28;20306;-58
2023/07/31 05:03:40;;;;;;;6.13;2.03;;;;;;;;;;5063252;28;20736;-60
2023/07/31 05:06:06;;;;;;;2.53;1.87;;;;;;;;;;5064280;28;20355;-60
2023/07/31 05:08:31;;;;;;;6.30;2.58;;;;;;;;;;5063261;28;20327;-61
2023/07/31 05:10:56;;;;;;;3.00;2.10;;;;;;;;;;5062993;28;20024;-60
2023/07/31 05:13:21;;;;;;;3.57;2.40;;;;;;;;;;5062598;28;20242;-61
2023/07/31 05:15:49;;;;;;;9.23;2.17;;;;;;;;;;5063019;28;20510;-60
2023/07/31 05:18:14;;;;;;;3.88;2.03;;;;;;;;;;5062538;28;20568;-60
2023/07/31 05:20:39;;;;;;;4.13;2.00;;;;;;;;;;5062660;28;20107;-61
2023/07/31 05:23:05;;;;;;;3.07;2.17;;;;;;;;;;5062510;28;20047;-60
2023/07/31 05:25:30;;;;;;;5.00;2.55;;;;;;;;;;5065802;28;20009;-60
2023/07/31 05:27:55;;;;;;;3.20;2.27;;;;;;;;;;5066167;28;20016;-59
2023/07/31 05:30:21;;;;;;;2.15;1.80;;;;;;;;;;5066074;28;20352;-61
2023/07/31 05:32:46;;;;;;;5.50;2.10;;;;;;;;;;5066002;28;20115;-61
2023/07/31 05:35:12;;;;;;;4.18;2.25;;;;;;;;;;5065519;28;20017;-59
2023/07/31 05:37:37;;;;;;;4.55;2.05;;;;;;;;;;5066188;28;20085;-61
2023/07/31 05:40:02;;;;;;;9.57;2.67;;;;;;;;;;5064601;28;20113;-58
2023/07/31 05:42:28;;;;;;;3.08;1.60;;;;;;;;;;5086365;28;20056;-60
2023/07/31 05:44:53;;;;;;;2.47;1.80;;;;;;;;;;5072891;28;20486;-60
2023/07/31 05:47:18;;;;;;;3.23;1.70;;;;;;;;;;5100213;28;20280;-60
2023/07/31 05:49:44;;;;;;;3.88;2.20;;;;;;;;;;5086708;28;20926;-60
2023/07/31 05:52:09;;;;;;;5.95;1.98;;;;;;;;;;5080652;28;20023;-59
2023/07/31 05:54:34;;;;;;;2.42;1.77;;;;;;;;;;5086915;28;20534;-59
2023/07/31 05:57:00;;;;;;;2.63;1.90;;;;;;;;;;5084235;28;20058;-60
2023/07/31 05:59:25;;;;;;;4.22;1.63;;;;;;;;;;5086478;28;20787;-60
2023/07/31 06:01:50;;;;;;;3.35;1.77;;;;;;;;;;5081678;28;20483;-60
2023/07/31 06:04:15;;;;;;;2.00;1.60;;;;;;;;;;5072585;28;20502;-61
2023/07/31 06:06:41;;;;;;;3.67;1.40;;;;;;;;;;5075541;28;20477;-60
2023/07/31 06:09:06;;;;;;;48.10;4.10;;;;;;;;;;5082167;28;20264;-60
2023/07/31 06:11:32;;;;;;;4.57;1.90;;;;;;;;;;5051716;28;20775;-58
2023/07/31 06:13:57;;;;;;;1.98;1.60;;;;;;;;;;5067925;28;20037;-58
2023/07/31 06:16:22;;;;;;;4.20;1.40;;;;;;;;;;5083217;28;20024;-60
2023/07/31 06:18:48;;;;;;;3.20;1.40;;;;;;;;;;5082700;28;20730;-60
2023/07/31 06:21:13;;;;;;;47.00;14.33;;;;;;;;;;5082113;28;20028;-61
2023/07/31 06:23:38;;;;;;;37.15;11.60;;;;;;;;;;5065124;28;20315;-60
2023/07/31 06:26:04;;;;;;;11.33;2.90;;;;;;;;;;5081886;28;20492;-61
2023/07/31 06:28:29;;;;;;;2.17;1.60;;;;;;;;;;5082111;28;20248;-60
2023/07/31 06:30:55;;;;;;;2.33;1.50;;;;;;;;;;5046843;28;20197;-61
2023/07/31 06:33:20;;;;;;;2.38;1.60;;;;;;;;;;5042252;28;20037;-61
2023/07/31 06:35:45;;;;;;;6.05;1.63;;;;;;;;;;5041546;28;20040;-61
2023/07/31 06:38:11;;;;;;;10.33;4.03;;;;;;;;;;5041681;28;20029;-61
2023/07/31 06:40:36;;;;;;;20.17;7.00;;;;;;;;;;5043056;28;20595;-60
2023/07/31 06:43:07;;;;;;;2.72;1.75;;;;;;;;;;5066924;28;20123;-61
2023/07/31 06:45:33;;;;;;;2.45;1.55;;;;;;;;;;5079482;28;20114;-60
2023/07/31 06:48:01;;;;;;;4.07;1.75;;;;;;;;;;5073049;28;20091;-57
2023/07/31 06:50:26;;;;;;;2.20;1.20;;;;;;;;;;5042294;28;20035;-61
2023/07/31 06:52:51;;;;;;;2.70;1.40;;;;;;;;;;5086300;28;20455;-61
2023/07/31 06:55:24;;;;;;;3.57;1.50;;;;;;;;;;5082818;28;20259;-59
2023/07/31 06:57:50;;;;;;;4.43;1.30;;;;;;;;;;5082737;28;20834;-58
2023/07/31 07:00:16;;;;;;;4.47;1.40;;;;;;;;;;5060579;28;20042;-59
2023/07/31 07:02:41;;;;;;;4.00;1.48;;;;;;;;;;5077419;28;20531;-61
2023/07/31 07:05:07;;;;;;;5.28;1.50;;;;;;;;;;5081291;28;20499;-59
2023/07/31 07:07:33;;;;;;;3.95;1.48;;;;;;;;;;5079360;28;20077;-58
2023/07/31 07:09:59;;;;;;;5.82;1.60;;;;;;;;;;5089056;28;20024;-61
2023/07/31 07:12:25;;;;;;;4.43;1.73;;;;;;;;;;5077487;28;20020;-61
2023/07/31 07:14:50;;;;;;;10.05;1.83;;;;;;;;;;5061469;28;21004;-60
2023/07/31 07:17:15;;;;;;;3.08;1.50;;;;;;;;;;5078202;28;20395;-59
2023/07/31 07:19:41;;;;;;;2.38;1.20;;;;;;;;;;5080727;28;20056;-60
2023/07/31 07:22:07;;;;;;;4.28;1.58;;;;;;;;;;5079656;28;20028;-60
2023/07/31 07:24:32;;;;;;;3.50;1.48;;;;;;;;;;5078413;28;20024;-60
2023/07/31 07:26:57;;;;;;;5.53;1.47;;;;;;;;;;5073499;28;20560;-59
2023/07/31 07:29:23;;;;;;;3.70;1.40;;;;;;;;;;5077434;28;20343;-60
2023/07/31 07:31:48;;;;;;;6.37;1.30;;;;;;;;;;5085092;28;20667;-60
2023/07/31 07:34:13;;;;;;;3.15;1.58;;;;;;;;;;5077241;28;20020;-58
2023/07/31 07:36:39;;;;;;;5.37;2.00;;;;;;;;;;5073921;28;20082;-58
2023/07/31 07:39:04;;;;;;;4.13;1.30;;;;;;;;;;5076922;28;20490;-60
2023/07/31 07:41:30;;;;;;;3.13;1.30;;;;;;;;;;5069212;28;20052;-58
2023/07/31 07:43:55;;;;;;;3.10;1.52;;;;;;;;;;5056688;28;20055;-58
2023/07/31 07:46:20;;;;;;;4.07;1.10;;;;;;;;;;5072193;28;20522;-60
2023/07/31 07:48:46;;;;;;;3.65;1.55;;;;;;;;;;5075689;28;20089;-60
2023/07/31 07:51:11;;;;;;;4.37;1.17;;;;;;;;;;5068883;28;20100;-60
2023/07/31 07:53:36;;;;;;;3.77;1.50;;;;;;;;;;5070343;28;20005;-60
2023/07/31 07:56:02;;;;;;;5.57;1.20;;;;;;;;;;5090405;28;20487;-61
2023/07/31 07:58:27;;;;;;;2.63;1.30;;;;;;;;;;5086011;28;20047;-61
2023/07/31 08:00:52;;;;;;;4.03;1.20;;;;;;;;;;5085256;28;20055;-61
2023/07/31 08:03:18;;;;;;;4.77;1.20;;;;;;;;;;5076961;28;20032;-60
2023/07/31 08:05:43;;;;;;;5.85;1.35;;;;;;;;;;5078977;28;20026;-60
2023/07/31 08:08:14;;;;;;;1.30;1.10;;;;;;;;;;5073445;28;20024;-60
2023/07/31 08:10:39;;;;;;;4.07;1.40;;;;;;;;;;5075595;28;20020;-60
2023/07/31 08:13:04;;;;;;;2.83;1.23;;;;;;;;;;5081353;28;20020;-60
2023/07/31 08:15:29;;;;;;;6.93;1.87;;;;;;;;;;5064739;28;20031;-61
2023/07/31 08:17:55;;;;;;;2.67;1.33;;;;;;;;;;5071348;28;20268;-60
2023/07/31 08:20:20;;;;;;;4.57;1.30;;;;;;;;;;5073395;28;20107;-62
2023/07/31 08:22:46;;;;;;;2.87;1.40;;;;;;;;;;5050257;28;20089;-61
2023/07/31 08:25:11;;;;;;;2.72;1.60;;;;;;;;;;5067908;28;20257;-60
2023/07/31 08:27:36;;;;;;;2.28;1.40;;;;;;;;;;5055488;28;20019;-60
2023/07/31 08:30:02;;;;;;;5.68;1.55;;;;;;;;;;5078351;28;20374;-61
2023/07/31 08:32:27;;;;;;;1.77;1.15;;;;;;;;;;5074203;28;20016;-60
2023/07/31 08:34:52;;;;;;;4.93;1.40;;;;;;;;;;5071286;28;20606;-61
2023/07/31 08:37:18;;;;;;;3.57;1.33;;;;;;;;;;5071312;28;20326;-60
2023/07/31 08:39:43;;;;;;;3.70;1.07;;;;;;;;;;5071693;28;20032;-62
2023/07/31 08:42:09;;;;;;;4.23;1.30;;;;;;;;;;5080079;28;20076;-61
2023/07/31 08:44:35;;;;;;;3.97;1.58;;;;;;;;;;5070543;28;20310;-62
2023/07/31 08:47:00;;;;;;;3.78;1.42;;;;;;;;;;5075722;28;20052;-60
2023/07/31 08:49:26;;;;;;;2.28;1.40;;;;;;;;;;5076616;28;20361;-60
2023/07/31 08:51:52;;;;;;;3.60;1.10;;;;;;;;;;5062668;28;20024;-59
2023/07/31 08:54:17;;;;;;;3.88;1.42;;;;;;;;;;5066792;28;20493;-60
2023/07/31 08:56:43;;;;;;;2.33;1.50;;;;;;;;;;5060906;28;20093;-61
2023/07/31 08:59:08;;;;;;;3.05;1.48;;;;;;;;;;5077770;28;20577;-61
2023/07/31 09:01:37;;;;;;;3.95;1.17;;;;;;;;;;5071402;28;20032;-60
2023/07/31 09:04:04;;;;;;;6.32;1.40;;;;;;;;;;5075278;28;20579;-59
2023/07/31 09:06:30;;;;;;;5.00;1.25;;;;;;;;;;5074383;28;20112;-60
2023/07/31 09:08:55;;;;;;;5.82;1.45;;;;;;;;;;5073404;28;20049;-59
2023/07/31 09:11:21;;;;;;;4.75;1.33;;;;;;;;;;5069074;28;20639;-61
2023/07/31 09:13:48;;;;;;;4.18;1.35;;;;;;;;;;5068811;28;20037;-59
2023/07/31 09:16:13;;;;;;;5.85;1.42;;;;;;;;;;5071214;28;20026;-60
2023/07/31 09:18:52;;;;;;;7.23;1.27;;;;;;;;;;5071610;28;20028;-59
2023/07/31 09:21:18;;;;;;;6.65;1.65;;;;;;;;;;5085651;28;20286;-60
2023/07/31 09:23:44;;;;;;;3.93;1.40;;;;;;;;;;5086771;28;20399;-59
2023/07/31 09:26:10;;;;;;;2.83;0.98;;;;;;;;;;5084691;28;20028;-59
2023/07/31 09:28:35;;;;;;;2.90;1.20;;;;;;;;;;5078109;28;20028;-60
2023/07/31 09:31:00;;;;;;;3.05;1.30;;;;;;;;;;5080997;28;20035;-60
2023/07/31 09:33:26;;;;;;;3.67;1.23;;;;;;;;;;5087853;28;20022;-61
2023/07/31 09:35:51;;;;;;;5.73;1.13;;;;;;;;;;5082959;28;20271;-61
2023/07/31 09:38:17;;;;;;;5.27;1.53;;;;;;;;;;5076453;28;20102;-61
2023/07/31 09:40:43;;;;;;;3.42;1.30;;;;;;;;;;5080393;28;20263;-60
2023/07/31 09:43:10;;;;;;;6.00;1.40;;;;;;;;;;5078420;28;20451;-60
2023/07/31 09:45:36;;;;;;;1.33;1.10;;;;;;;;;;5079934;28;20020;-60
2023/07/31 09:48:02;;;;;;;2.20;0.98;;;;;;;;;;5078831;28;20032;-60
2023/07/31 09:50:29;;;;;;;3.47;1.30;;;;;;;;;;5077128;28;20028;-59
2023/07/31 09:52:54;;;;;;;7.10;2.90;;;;;;;;;;5072562;28;20384;-60
2023/07/31 09:57:42;;;;;;;3.83;1.90;;;;;;;;;;5108132;27;20729;-59
2023/07/31 10:00:09;;;;;;;12.38;2.10;;;;;;;;;;5050587;28;20597;-56
2023/07/31 10:02:35;;;;;;;3.90;1.02;;;;;;;;;;5066634;28;20431;-60
2023/07/31 10:05:02;;;;;;;3.90;1.88;;;;;;;;;;5072090;28;20916;-59
2023/07/31 10:07:28;;;;;;;5.65;1.40;;;;;;;;;;5063088;28;20534;-58
2023/07/31 10:09:55;;;;;;;2.72;1.25;;;;;;;;;;5067490;28;20082;-57
2023/07/31 10:12:22;;;;;;;6.50;2.83;;;;;;;;;;5070566;28;20075;-55
2023/07/31 10:14:47;;;;;;;9.00;3.42;;;;;;;;;;5074088;28;20024;-57
2023/07/31 10:17:13;;;;;;;3.23;1.50;;;;;;;;;;5068351;28;20484;-58
2023/07/31 10:19:38;;;;;;;25.08;2.53;;;;;;;;;;5073221;28;20078;-58
2023/07/31 10:22:04;;;;;;;11.55;1.52;;;;;;;;;;5070947;28;20454;-54
2023/07/31 10:24:30;;;;;;;4.80;1.38;;;;;;;;;;5073878;28;20055;-57
2023/07/31 10:26:57;;;;;;;9.02;2.88;;;;;;;;;;5070402;28;20040;-58
2023/07/31 10:29:24;;;;;;;2.50;1.30;;;;;;;;;;5073957;28;20028;-56
2023/07/31 10:31:50;;;;;;;5.60;1.40;;;;;;;;;;5073322;28;20107;-59
2023/07/31 10:34:16;;;;;;;3.58;1.20;;;;;;;;;;5064633;28;20032;-55
2023/07/31 10:36:41;;;;;;;2.70;1.00;;;;;;;;;;5056538;28;20039;-59
2023/07/31 10:39:26;;;;;;;4.47;1.20;;;;;;;;;;5059034;28;20053;-54
2023/07/31 10:41:51;;;;;;;8.88;1.85;;;;;;;;;;5042751;28;20021;-58
2023/07/31 10:44:17;;;;;;;36.77;2.97;;;;;;;;;;5044384;28;20400;-55
2023/07/31 10:46:42;;;;;;;21.67;3.53;;;;;;;;;;5054443;28;20257;-58
2023/07/31 10:49:07;;;;;;;3.92;0.90;;;;;;;;;;5068452;28;20500;-58
2023/07/31 10:51:34;;;;;;;3.23;1.20;;;;;;;;;;5049351;28;20155;-57
2023/07/31 10:54:17;;;;;;;4.65;1.58;;;;;;;;;;5046130;28;20396;-57
2023/07/31 10:56:47;;;;;;;8.32;1.42;;;;;;;;;;5051101;28;20048;-58
2023/07/31 10:59:13;;;;;;;4.20;1.25;;;;;;;;;;5039240;28;20096;-57
2023/07/31 11:01:52;;;;;;;3.33;1.13;;;;;;;;;;5055468;28;20021;-57
2023/07/31 11:06:36;;;;;;;3.45;2.10;;;;;;;;;;5093421;27;20430;-56
2023/07/31 11:09:01;;;;;;;4.82;1.40;;;;;;;;;;5091928;28;20096;-59
2023/07/31 11:11:26;;;;;;;6.60;1.20;;;;;;;;;;5097121;28;20377;-57
2023/07/31 11:13:53;;;;;;;2.87;1.30;;;;;;;;;;5095673;28;20030;-54
2023/07/31 11:18:45;;;;;;;2.42;1.23;;;;;;;;;;5060951;27;20743;-58
2023/07/31 11:21:14;;;;;;;6.45;1.40;;;;;;;;;;5057502;28;20025;-57
2023/07/31 11:23:39;;;;;;;23.40;2.55;;;;;;;;;;5059716;28;20498;-58
2023/07/31 11:26:06;;;;;;;8.73;2.25;;;;;;;;;;5059982;28;20048;-57
2023/07/31 11:28:34;;;;;;;3.00;1.20;;;;;;;;;;5062597;28;20517;-58
2023/07/31 11:30:59;;;;;;;;;;;;;;;;;;5061178;28;20024;-58
2023/07/31 11:33:25;;;;;;;5.03;1.25;;;;;;;;;;5060303;28;19905;-58
2023/07/31 11:35:50;;;;;;;8.43;1.23;;;;;;;;;;5055611;28;20035;-60
2023/07/31 11:38:26;;;;;;;7.87;1.80;;;;;;;;;;5058437;28;20060;-59
2023/07/31 11:40:52;;;;;;;6.35;1.77;;;;;;;;;;5057179;28;20032;-58
2023/07/31 11:43:17;;;;;;;4.00;1.58;;;;;;;;;;5071997;28;20028;-59
2023/07/31 11:45:54;;;;;;;45.17;5.05;;;;;;;;;;5073266;28;20024;-58
2023/07/31 11:48:23;;;;;;;3.78;1.30;;;;;;;;;;5078311;28;20115;-56
2023/07/31 11:50:52;;;;;;;3.80;1.30;;;;;;;;;;5077126;28;20074;-56
2023/07/31 11:53:20;;;;;;;5.35;1.48;;;;;;;;;;5057045;28;20476;-60
2023/07/31 11:55:46;;;;;;;5.55;1.40;;;;;;;;;;5055278;28;20031;-57
2023/07/31 11:58:12;;;;;;;4.55;1.85;;;;;;;;;;5054563;28;20037;-55
2023/07/31 12:00:37;;;;;;;2.22;1.23;;;;;;;;;;5052002;28;20040;-60
2023/07/31 12:03:02;;;;;;;9.95;2.13;;;;;;;;;;5067265;28;20422;-58
2023/07/31 12:05:28;;;;;;;4.03;1.15;;;;;;;;;;5052147;28;20090;-59
2023/07/31 12:07:54;;;;;;;1.92;1.08;;;;;;;;;;5058303;28;20538;-60
2023/07/31 12:10:23;;;;;;;6.43;1.30;;;;;;;;;;5055003;28;20503;-61
2023/07/31 12:12:59;;;;;;;2.80;1.30;;;;;;;;;;5052860;28;20052;-56
2023/07/31 12:15:37;;;;;;;5.15;1.58;;;;;;;;;;5052982;28;20503;-58
2023/07/31 12:18:11;;;;;;;3.92;1.38;;;;;;;;;;5053211;28;20057;-59
2023/07/31 12:20:41;;;;;;;6.00;1.27;;;;;;;;;;5056480;28;20036;-59
2023/07/31 12:23:07;;;;;;;4.28;1.40;;;;;;;;;;5052803;28;20029;-56
2023/07/31 12:25:33;;;;;;;95.32;31.55;;;;;;;;;;5054342;28;20033;-59
2023/07/31 12:28:03;;;;;;;4.47;1.73;;;;;;;;;;5057928;28;20127;-59
2023/07/31 12:30:35;;;;;;;59.45;22.88;;;;;;;;;;5041754;28;20025;-58
2023/07/31 12:33:18;;;;;;;2.42;1.35;;;;;;;;;;5047930;28;20309;-57
2023/07/31 12:35:45;;;;;;;2.45;1.27;;;;;;;;;;5040913;28;20139;-60
2023/07/31 12:38:11;;;;;;;21.83;9.68;;;;;;;;;;5044421;28;20043;-58
2023/07/31 12:40:38;;;;;;;4.68;1.60;;;;;;;;;;5041924;28;20032;-58
2023/07/31 12:43:03;;;;;;;5.07;1.08;;;;;;;;;;5039928;28;20057;-60
2023/07/31 12:45:29;;;;;;;88.78;37.33;;;;;;;;;;5040075;28;20538;-57
2023/07/31 12:47:54;;;;;;;6.03;1.50;;;;;;;;;;5053351;28;20063;-56
2023/07/31 12:50:19;;;;;;;5.47;1.10;;;;;;;;;;5034706;28;20339;-58
2023/07/31 12:52:45;;;;;;;4.43;1.20;;;;;;;;;;5055322;28;20024;-58
2023/07/31 12:55:10;;;;;;;3.93;1.13;;;;;;;;;;5034978;28;20083;-60
2023/07/31 12:57:36;;;;;;;2.35;1.20;;;;;;;;;;5036615;28;20025;-58
2023/07/31 13:00:01;;;;;;;242.60;78.80;;;;;;;;;;5039410;28;20033;-59
2023/07/31 13:02:27;;;;;;;3.92;1.10;;;;;;;;;;5033499;28;20029;-60
2023/07/31 16:23:28;;;;;;;3.70;1.50;;;;;;;;;;5066585;28;20829;-55
2023/07/31 16:25:53;;;;;;;4.72;1.30;;;;;;;;;;5046963;28;20069;-58
2023/07/31 16:28:19;;;;;;;3.23;1.20;;;;;;;;;;5045932;28;20025;-58
2023/07/31 16:30:46;;;;;;;7.13;2.28;;;;;;;;;;5034941;28;20251;-54
2023/07/31 16:33:11;;;;;;;4.82;2.47;;;;;;;;;;5026535;28;20075;-58
2023/07/31 16:35:36;;;;;;;5.15;1.58;;;;;;;;;;5026793;28;20033;-56
2023/07/31 16:38:02;;;;;;;2.87;1.37;;;;;;;;;;5026618;28;20034;-56
2023/07/31 16:40:27;;;;;;;5.93;1.30;;;;;;;;;;5026625;28;20022;-55
2023/07/31 16:42:52;;;;;;;3.43;1.27;;;;;;;;;;5027562;28;20030;-58
2023/07/31 16:45:18;;;;;;;4.50;1.80;;;;;;;;;;5026836;28;20033;-59
2023/07/31 16:47:43;;;;;;;6.38;1.58;;;;;;;;;;5026166;28;20356;-58
2023/07/31 16:50:08;;;;;;;5.27;1.70;;;;;;;;;;5025550;28;20477;-57
2023/07/31 16:52:34;;;;;;;5.22;1.42;;;;;;;;;;5026980;28;20336;-58
2023/07/31 16:54:59;;;;;;;3.17;1.20;;;;;;;;;;5026875;28;20079;-56
2023/07/31 16:57:25;;;;;;;3.23;1.60;;;;;;;;;;5026871;28;21072;-57
2023/07/31 16:59:50;;;;;;;5.75;1.65;;;;;;;;;;5027139;28;20033;-58
2023/07/31 17:02:16;;;;;;;7.97;2.93;;;;;;;;;;5028327;28;20108;-59
2023/07/31 17:04:41;;;;;;;5.20;1.70;;;;;;;;;;5046670;28;20500;-58
2023/07/31 17:07:06;;;;;;;4.03;1.23;;;;;;;;;;5036742;28;20029;-59
2023/07/31 17:09:31;;;;;;;2.57;1.17;;;;;;;;;;5026436;28;20344;-59
2023/07/31 17:11:57;;;;;;;4.13;1.20;;;;;;;;;;5026401;28;20275;-58
2023/07/31 17:14:23;;;;;;;3.88;1.17;;;;;;;;;;5026110;28;20271;-58
2023/07/31 17:16:48;;;;;;;7.50;1.50;;;;;;;;;;5025103;28;20602;-57
2023/07/31 17:19:15;;;;;;;3.85;1.67;;;;;;;;;;5026732;28;20061;-55
2023/07/31 17:21:40;;;;;;;8.25;1.70;;;;;;;;;;5031574;28;20072;-56
2023/07/31 17:24:05;;;;;;;5.18;1.20;;;;;;;;;;5034485;28;20060;-57
2023/07/31 17:26:31;;;;;;;1.75;1.08;;;;;;;;;;5032749;28;20033;-59
2023/07/31 17:28:56;;;;;;;2.63;1.30;;;;;;;;;;4981083;28;20025;-58
2023/07/31 17:31:22;;;;;;;2.35;1.40;;;;;;;;;;5032491;28;20025;-58
2023/07/31 17:33:47;;;;;;;3.10;1.45;;;;;;;;;;5032532;28;20481;-59
2023/07/31 17:36:13;;;;;;;8.40;1.93;;;;;;;;;;5032922;28;20025;-56
2023/07/31 17:38:39;;;;;;;3.33;1.52;;;;;;;;;;5032790;28;20699;-56
2023/07/31 17:41:05;;;;;;;3.78;1.88;;;;;;;;;;5032474;28;20171;-57
2023/07/31 17:43:31;;;;;;;9.15;1.52;;;;;;;;;;5032245;28;20526;-59
2023/07/31 17:45:56;;;;;;;7.80;1.63;;;;;;;;;;5032292;28;20083;-56
2023/07/31 17:48:22;;;;;;;3.60;1.60;;;;;;;;;;5014793;28;20131;-59
2023/07/31 17:50:51;;;;;;;6.60;1.50;;;;;;;;;;5032262;28;20105;-55
2023/07/31 17:53:17;;;;;;;6.82;1.73;;;;;;;;;;5032887;28;20251;-58
2023/07/31 17:55:42;;;;;;;12.07;2.10;;;;;;;;;;5032139;28;20406;-57
2023/07/31 17:58:07;;;;;;;8.00;1.80;;;;;;;;;;5032142;28;20018;-58
2023/07/31 18:00:33;;;;;;;7.03;2.20;;;;;;;;;;5032218;28;20371;-58
2023/07/31 18:02:58;;;;;;;13.68;2.13;;;;;;;;;;5032219;28;20251;-58